CMA CGM Lamartine — 2DMF2 — position and weather

sailwx.info

Track history (hours):
 
Tides and Currents Weather Stations Pressure Air Temp Water Temp Dewpoint Dewpoint Depression Visibility Wind Speed Wind Dir Waves Ship Positions

CMA CGM Lamartine

Last reported at 2018-May-25 10:23 UTC. Time now 2018-May-25 18:46 UTC.
Position N 30°36' E 122°05'.

Length 299 m; draft 10.2 m.

Type: Ship (hazmat cat A). MMSI: 235080187.

Date/timePositionNaut miles runAvg speedWind from/ knotsBaromVisibWave heightAir tempDewpointWater temp
2018-May-25 10:23N 30°36' E 122°05'613.2
2018-May-25 09:57N 30°34' E 122°11'29 1.1
2018-May-24 06:22N 30°25' E 122°43'0 0.0
2018-May-24 05:58N 30°25' E 122°43'0 0.0
2018-May-24 05:25N 30°25' E 122°43'0 0.0
2018-May-24 03:31N 30°25' E 122°43'0 0.0
2018-May-24 03:28N 30°25' E 122°43'0 0.0
2018-May-24 02:58N 30°25' E 122°43'0 0.0
2018-May-24 02:28N 30°25' E 122°43'0 0.0
2018-May-24 01:58N 30°25' E 122°43'0 0.2
2018-May-24 01:25N 30°26' E 122°43'2 4.2
2018-May-24 00:59N 30°24' E 122°45'712.7
2018-May-24 00:27N 30°22' E 122°52'613.5
2018-May-24 00:00N 30°20' E 122°59'1813.2
2018-May-23 22:38N 30°03' E 123°05'36413.5
2018-May-22 19:35N 24°46' E 119°43'215.8
2018-May-22 19:26N 24°44' E 119°41'715.7
2018-May-22 19:00N 24°40' E 119°35'816.0
2018-May-22 18:30N 24°35' E 119°28'815.2
2018-May-22 18:00N 24°30' E 119°22'815.4
2018-May-22 17:30N 24°25' E 119°15'715.4
2018-May-22 17:00N 24°20' E 119°09'815.3
2018-May-22 16:30N 24°15' E 119°03'715.0
2018-May-22 16:00N 24°10' E 118°56'715.0
2018-May-22 15:30N 24°06' E 118°50'714.7
2018-May-22 15:00N 24°01' E 118°44'714.3
2018-May-22 14:30N 23°55' E 118°39'714.3
2018-May-22 14:00N 23°51' E 118°33'714.1
2018-May-22 13:30N 23°46' E 118°27'714.0
2018-May-22 13:00N 23°42' E 118°21'713.7
2018-May-22 12:30N 23°37' E 118°15'713.6
2018-May-22 12:00N 23°33' E 118°10'713.7
2018-May-22 11:31N 23°28' E 118°04'713.7
2018-May-22 11:01N 23°24' E 117°58'713.6
2018-May-22 10:31N 23°20' E 117°52'713.8
2018-May-22 10:00N 23°16' E 117°46'714.1
2018-May-22 09:30N 23°13' E 117°39'714.4
2018-May-22 09:00N 23°10' E 117°32'714.9
2018-May-22 08:30N 23°06' E 117°25'816.9
2018-May-22 08:01N 23°01' E 117°18'1020.3
2018-May-22 07:30N 22°55' E 117°08'1020.3
2018-May-22 07:00N 22°50' E 116°60'1120.2
2018-May-22 06:27N 22°43' E 116°50'  
2018-May-16 11:15N 01°40' E 104°39'518.0
2018-May-16 10:59N 01°35' E 104°37'817.0
2018-May-16 10:30N 01°28' E 104°33'916.7
2018-May-16 09:59N 01°22' E 104°27'816.9
2018-May-16 09:29N 01°17' E 104°20'816.3
2018-May-16 08:59N 01°16' E 104°12'816.5
2018-May-16 08:31N 01°15' E 104°04'815.7
2018-May-16 08:00N 01°13' E 103°56'713.4
2018-May-16 07:29N 01°12' E 103°50'3 5.7
2018-May-16 07:00N 01°13' E 103°47'2 3.6
2018-May-16 06:27N 01°15' E 103°47'0 0.0
2018-May-16 06:00N 01°15' E 103°47'0 0.0
2018-May-16 05:30N 01°15' E 103°47'0 0.0
2018-May-16 05:00N 01°15' E 103°47'0 0.0
2018-May-16 04:30N 01°15' E 103°47'0 0.0
2018-May-16 04:00N 01°15' E 103°47'0 0.0
2018-May-16 03:30N 01°15' E 103°47'0 0.0
2018-May-16 02:59N 01°15' E 103°47'0 0.0
2018-May-16 02:28N 01°15' E 103°47'0 0.0
2018-May-16 02:00N 01°15' E 103°47'0 0.0
2018-May-16 01:30N 01°15' E 103°47'0 0.0
2018-May-16 00:57N 01°15' E 103°47'0 0.0
2018-May-16 00:27N 01°15' E 103°47'0 0.0
2018-May-16 00:00N 01°15' E 103°47'0 0.0
2018-May-15 23:30N 01°15' E 103°47'0 0.0
2018-May-15 23:00N 01°15' E 103°47'0 0.0
2018-May-15 22:27N 01°15' E 103°47'0 0.0
2018-May-15 21:57N 01°15' E 103°47'0 0.0
2018-May-15 21:28N 01°15' E 103°47'0 0.0
2018-May-15 21:00N 01°15' E 103°47'0 0.0
2018-May-15 20:28N 01°15' E 103°47'0 0.0
2018-May-15 20:00N 01°15' E 103°47'0 0.0
2018-May-15 19:30N 01°15' E 103°47'0 0.0
2018-May-15 18:58N 01°15' E 103°47'0 0.0
2018-May-15 18:30N 01°15' E 103°47'0 0.0
2018-May-15 18:00N 01°15' E 103°47'0 0.0
2018-May-15 17:30N 01°15' E 103°47'0 0.0
2018-May-15 17:00N 01°15' E 103°47'0 0.0
2018-May-15 16:31N 01°15' E 103°47'0 0.0
2018-May-15 15:58N 01°15' E 103°47'0 0.0
2018-May-15 15:24N 01°15' E 103°47'0 0.0
2018-May-15 15:00N 01°15' E 103°47'0 0.0
2018-May-15 14:30N 01°15' E 103°47'0 0.0
2018-May-15 14:00N 01°15' E 103°47'0 0.0
2018-May-15 13:30N 01°15' E 103°47'0 0.0
2018-May-15 13:00N 01°15' E 103°47'0 0.0
2018-May-15 12:30N 01°15' E 103°47'0 0.0
2018-May-15 12:00N 01°15' E 103°47'0 0.0
2018-May-15 11:30N 01°15' E 103°47'0 0.0
2018-May-15 11:00N 01°15' E 103°47'0 0.0
2018-May-15 10:30N 01°15' E 103°47'  
Track history (hours):
 
Tides and Currents Weather Stations Pressure Air Temp Water Temp Dewpoint Dewpoint Depression Visibility Wind Speed Wind Dir Waves Ship Positions

CMA CGM Lamartine

Last reported at 2018-May-25 10:23 UTC. Time now 2018-May-25 18:46 UTC.
Position N 30°36' E 122°05'.

Length 299 m; draft 10.2 m.

Type: Ship (hazmat cat A). MMSI: 235080187.

Date/timePositionNaut miles runAvg speedWind from/ knotsBaromVisibWave heightAir tempDewpointWater temp
2018-May-25 10:23N 30°36' E 122°05'613.2
2018-May-25 09:57N 30°34' E 122°11'29 1.1
2018-May-24 06:22N 30°25' E 122°43'0 0.0
2018-May-24 05:58N 30°25' E 122°43'0 0.0
2018-May-24 05:25N 30°25' E 122°43'0 0.0
2018-May-24 03:31N 30°25' E 122°43'0 0.0
2018-May-24 03:28N 30°25' E 122°43'0 0.0
2018-May-24 02:58N 30°25' E 122°43'0 0.0
2018-May-24 02:28N 30°25' E 122°43'0 0.0
2018-May-24 01:58N 30°25' E 122°43'0 0.2
2018-May-24 01:25N 30°26' E 122°43'2 4.2
2018-May-24 00:59N 30°24' E 122°45'712.7
2018-May-24 00:27N 30°22' E 122°52'613.5
2018-May-24 00:00N 30°20' E 122°59'1813.2
2018-May-23 22:38N 30°03' E 123°05'36413.5
2018-May-22 19:35N 24°46' E 119°43'215.8
2018-May-22 19:26N 24°44' E 119°41'715.7
2018-May-22 19:00N 24°40' E 119°35'816.0
2018-May-22 18:30N 24°35' E 119°28'815.2
2018-May-22 18:00N 24°30' E 119°22'815.4
2018-May-22 17:30N 24°25' E 119°15'715.4
2018-May-22 17:00N 24°20' E 119°09'815.3
2018-May-22 16:30N 24°15' E 119°03'715.0
2018-May-22 16:00N 24°10' E 118°56'715.0
2018-May-22 15:30N 24°06' E 118°50'714.7
2018-May-22 15:00N 24°01' E 118°44'714.3
2018-May-22 14:30N 23°55' E 118°39'714.3
2018-May-22 14:00N 23°51' E 118°33'714.1
2018-May-22 13:30N 23°46' E 118°27'714.0
2018-May-22 13:00N 23°42' E 118°21'713.7
2018-May-22 12:30N 23°37' E 118°15'713.6
2018-May-22 12:00N 23°33' E 118°10'713.7
2018-May-22 11:31N 23°28' E 118°04'713.7
2018-May-22 11:01N 23°24' E 117°58'713.6
2018-May-22 10:31N 23°20' E 117°52'713.8
2018-May-22 10:00N 23°16' E 117°46'714.1
2018-May-22 09:30N 23°13' E 117°39'714.4
2018-May-22 09:00N 23°10' E 117°32'714.9
2018-May-22 08:30N 23°06' E 117°25'816.9
2018-May-22 08:01N 23°01' E 117°18'1020.3
2018-May-22 07:30N 22°55' E 117°08'1020.3
2018-May-22 07:00N 22°50' E 116°60'1120.2
2018-May-22 06:27N 22°43' E 116°50'  
2018-May-16 11:15N 01°40' E 104°39'518.0
2018-May-16 10:59N 01°35' E 104°37'817.0
2018-May-16 10:30N 01°28' E 104°33'916.7
2018-May-16 09:59N 01°22' E 104°27'816.9
2018-May-16 09:29N 01°17' E 104°20'816.3
2018-May-16 08:59N 01°16' E 104°12'816.5
2018-May-16 08:31N 01°15' E 104°04'815.7
2018-May-16 08:00N 01°13' E 103°56'713.4
2018-May-16 07:29N 01°12' E 103°50'3 5.7
2018-May-16 07:00N 01°13' E 103°47'2 3.6
2018-May-16 06:27N 01°15' E 103°47'0 0.0
2018-May-16 06:00N 01°15' E 103°47'0 0.0
2018-May-16 05:30N 01°15' E 103°47'0 0.0
2018-May-16 05:00N 01°15' E 103°47'0 0.0
2018-May-16 04:30N 01°15' E 103°47'0 0.0
2018-May-16 04:00N 01°15' E 103°47'0 0.0
2018-May-16 03:30N 01°15' E 103°47'0 0.0
2018-May-16 02:59N 01°15' E 103°47'0 0.0
2018-May-16 02:28N 01°15' E 103°47'0 0.0
2018-May-16 02:00N 01°15' E 103°47'0 0.0
2018-May-16 01:30N 01°15' E 103°47'0 0.0
2018-May-16 00:57N 01°15' E 103°47'0 0.0
2018-May-16 00:27N 01°15' E 103°47'0 0.0
2018-May-16 00:00N 01°15' E 103°47'0 0.0
2018-May-15 23:30N 01°15' E 103°47'0 0.0
2018-May-15 23:00N 01°15' E 103°47'0 0.0
2018-May-15 22:27N 01°15' E 103°47'0 0.0
2018-May-15 21:57N 01°15' E 103°47'0 0.0
2018-May-15 21:28N 01°15' E 103°47'0 0.0
2018-May-15 21:00N 01°15' E 103°47'0 0.0
2018-May-15 20:28N 01°15' E 103°47'0 0.0
2018-May-15 20:00N 01°15' E 103°47'0 0.0
2018-May-15 19:30N 01°15' E 103°47'0 0.0
2018-May-15 18:58N 01°15' E 103°47'0 0.0
2018-May-15 18:30N 01°15' E 103°47'0 0.0
2018-May-15 18:00N 01°15' E 103°47'0 0.0
2018-May-15 17:30N 01°15' E 103°47'0 0.0
2018-May-15 17:00N 01°15' E 103°47'0 0.0
2018-May-15 16:31N 01°15' E 103°47'0 0.0
2018-May-15 15:58N 01°15' E 103°47'0 0.0
2018-May-15 15:24N 01°15' E 103°47'0 0.0
2018-May-15 15:00N 01°15' E 103°47'0 0.0
2018-May-15 14:30N 01°15' E 103°47'0 0.0
2018-May-15 14:00N 01°15' E 103°47'0 0.0
2018-May-15 13:30N 01°15' E 103°47'0 0.0
2018-May-15 13:00N 01°15' E 103°47'0 0.0
2018-May-15 12:30N 01°15' E 103°47'0 0.0
2018-May-15 12:00N 01°15' E 103°47'0 0.0
2018-May-15 11:30N 01°15' E 103°47'0 0.0
2018-May-15 11:00N 01°15' E 103°47'0 0.0
2018-May-15 10:30N 01°15' E 103°47'  

Dump ship's entire track history